sensor_id;sensor_type;location;lat;lon;timestamp;pressure;altitude;pressure_sealevel;temperature;humidity
30110;BME280;14965;50.660;13.226;2022-11-15T00:00:01;94852.88;;;5.53;96.77
30110;BME280;14965;50.660;13.226;2022-11-15T00:02:27;94852.81;;;5.60;96.27
30110;BME280;14965;50.660;13.226;2022-11-15T00:04:53;94861.31;;;5.69;96.34
30110;BME280;14965;50.660;13.226;2022-11-15T00:07:20;94865.63;;;5.70;96.07
30110;BME280;14965;50.660;13.226;2022-11-15T00:09:46;94864.06;;;5.69;95.67
30110;BME280;14965;50.660;13.226;2022-11-15T00:12:12;94853.88;;;5.70;95.21
30110;BME280;14965;50.660;13.226;2022-11-15T00:14:38;94855.06;;;5.69;95.14
30110;BME280;14965;50.660;13.226;2022-11-15T00:17:04;94851.53;;;5.68;95.47
30110;BME280;14965;50.660;13.226;2022-11-15T00:19:30;94860.13;;;5.70;95.24
30110;BME280;14965;50.660;13.226;2022-11-15T00:21:56;94853.09;;;5.69;95.03
30110;BME280;14965;50.660;13.226;2022-11-15T00:24:23;94858.63;;;5.66;94.82
30110;BME280;14965;50.660;13.226;2022-11-15T00:26:52;94861.06;;;5.57;93.83
30110;BME280;14965;50.660;13.226;2022-11-15T00:29:18;94859.97;;;5.47;94.03
30110;BME280;14965;50.660;13.226;2022-11-15T00:31:47;94856.94;;;5.34;94.56
30110;BME280;14965;50.660;13.226;2022-11-15T00:34:13;94851.19;;;5.21;94.35
30110;BME280;14965;50.660;13.226;2022-11-15T00:36:39;94851.66;;;5.13;94.82
30110;BME280;14965;50.660;13.226;2022-11-15T00:39:05;94851.69;;;5.09;95.20
30110;BME280;14965;50.660;13.226;2022-11-15T00:41:33;94850.53;;;5.07;94.94
30110;BME280;14965;50.660;13.226;2022-11-15T00:43:59;94846.63;;;5.04;95.50
30110;BME280;14965;50.660;13.226;2022-11-15T00:46:25;94846.66;;;5.00;95.92
30110;BME280;14965;50.660;13.226;2022-11-15T00:48:51;94836.94;;;4.96;95.47
30110;BME280;14965;50.660;13.226;2022-11-15T00:51:17;94840.50;;;4.89;95.55
30110;BME280;14965;50.660;13.226;2022-11-15T00:53:43;94838.97;;;4.85;95.79
30110;BME280;14965;50.660;13.226;2022-11-15T00:56:09;94837.06;;;4.78;95.15
30110;BME280;14965;50.660;13.226;2022-11-15T00:58:36;94839.84;;;4.71;95.26
30110;BME280;14965;50.660;13.226;2022-11-15T01:01:07;94845.31;;;4.71;95.92
30110;BME280;14965;50.660;13.226;2022-11-15T01:03:34;94839.06;;;4.70;96.21
30110;BME280;14965;50.660;13.226;2022-11-15T01:06:01;94840.25;;;4.69;95.99
30110;BME280;14965;50.660;13.226;2022-11-15T01:08:27;94840.69;;;4.64;97.12
30110;BME280;14965;50.660;13.226;2022-11-15T01:10:53;94842.63;;;4.64;96.91
30110;BME280;14965;50.660;13.226;2022-11-15T01:13:19;94840.72;;;4.61;97.56
30110;BME280;14965;50.660;13.226;2022-11-15T01:15:46;94835.25;;;4.57;97.37
30110;BME280;14965;50.660;13.226;2022-11-15T01:18:12;94828.22;;;4.56;97.32
30110;BME280;14965;50.660;13.226;2022-11-15T01:20:40;94827.06;;;4.54;97.40
30110;BME280;14965;50.660;13.226;2022-11-15T01:23:06;94827.03;;;4.57;97.66
30110;BME280;14965;50.660;13.226;2022-11-15T01:25:32;94830.53;;;4.65;98.01
30110;BME280;14965;50.660;13.226;2022-11-15T01:27:58;94832.81;;;4.70;97.69
30110;BME280;14965;50.660;13.226;2022-11-15T01:30:24;94828.47;;;4.76;98.10
30110;BME280;14965;50.660;13.226;2022-11-15T01:32:51;94824.91;;;4.83;98.31
30110;BME280;14965;50.660;13.226;2022-11-15T01:35:17;94817.47;;;4.87;97.93
30110;BME280;14965;50.660;13.226;2022-11-15T01:37:43;94816.66;;;4.90;98.21
30110;BME280;14965;50.660;13.226;2022-11-15T01:40:10;94818.97;;;4.95;98.36
30110;BME280;14965;50.660;13.226;2022-11-15T01:42:36;94809.94;;;4.98;97.91
30110;BME280;14965;50.660;13.226;2022-11-15T01:45:04;94803.66;;;5.01;97.79
30110;BME280;14965;50.660;13.226;2022-11-15T01:47:36;94805.22;;;5.02;97.60
30110;BME280;14965;50.660;13.226;2022-11-15T01:50:10;94798.56;;;5.03;98.08
30110;BME280;14965;50.660;13.226;2022-11-15T01:52:38;94796.19;;;5.05;97.81
30110;BME280;14965;50.660;13.226;2022-11-15T01:55:11;94790.31;;;5.07;97.57
30110;BME280;14965;50.660;13.226;2022-11-15T01:57:44;94787.94;;;5.09;97.43
30110;BME280;14965;50.660;13.226;2022-11-15T02:00:13;94780.50;;;5.09;97.87
30110;BME280;14965;50.660;13.226;2022-11-15T02:02:40;94784.81;;;5.10;97.61
30110;BME280;14965;50.660;13.226;2022-11-15T02:05:08;94779.72;;;5.12;97.51
30110;BME280;14965;50.660;13.226;2022-11-15T02:07:36;94780.88;;;5.15;97.54
30110;BME280;14965;50.660;13.226;2022-11-15T02:10:09;94766.75;;;5.16;97.28
30110;BME280;14965;50.660;13.226;2022-11-15T02:12:36;94771.44;;;5.19;97.16
30110;BME280;14965;50.660;13.226;2022-11-15T02:15:04;94767.09;;;5.22;97.06
30110;BME280;14965;50.660;13.226;2022-11-15T02:17:50;94763.56;;;5.21;97.13
30110;BME280;14965;50.660;13.226;2022-11-15T02:20:42;94769.06;;;5.21;96.94
30110;BME280;14965;50.660;13.226;2022-11-15T02:23:48;94756.94;;;5.22;96.72
30110;BME280;14965;50.660;13.226;2022-11-15T02:26:52;94759.69;;;5.22;96.91
30110;BME280;14965;50.660;13.226;2022-11-15T02:29:40;94753.41;;;5.22;96.59
30110;BME280;14965;50.660;13.226;2022-11-15T02:32:20;94762.44;;;5.19;96.41
30110;BME280;14965;50.660;13.226;2022-11-15T02:34:56;94756.19;;;5.18;96.41
30110;BME280;14965;50.660;13.226;2022-11-15T02:37:34;94758.56;;;5.16;96.55
30110;BME280;14965;50.660;13.226;2022-11-15T02:40:11;94769.91;;;5.15;96.92
30110;BME280;14965;50.660;13.226;2022-11-15T02:42:47;94766.78;;;5.13;96.29
30110;BME280;14965;50.660;13.226;2022-11-15T02:45:21;94751.56;;;5.12;96.49
30110;BME280;14965;50.660;13.226;2022-11-15T02:47:54;94762.91;;;5.10;96.72
30110;BME280;14965;50.660;13.226;2022-11-15T02:50:29;94749.63;;;5.09;96.74
30110;BME280;14965;50.660;13.226;2022-11-15T02:52:56;94757.06;;;5.08;96.78
30110;BME280;14965;50.660;13.226;2022-11-15T02:55:29;94756.72;;;5.06;96.93
30110;BME280;14965;50.660;13.226;2022-11-15T02:58:15;94755.97;;;5.02;96.94
30110;BME280;14965;50.660;13.226;2022-11-15T03:00:54;94757.19;;;4.97;96.35
30110;BME280;14965;50.660;13.226;2022-11-15T03:03:48;94749.78;;;4.94;96.58
30110;BME280;14965;50.660;13.226;2022-11-15T03:06:28;94759.56;;;4.92;97.00
30110;BME280;14965;50.660;13.226;2022-11-15T03:09:05;94749.06;;;4.87;96.68
30110;BME280;14965;50.660;13.226;2022-11-15T03:11:38;94756.06;;;4.88;97.00
30110;BME280;14965;50.660;13.226;2022-11-15T03:14:18;94744.31;;;4.91;97.24
30110;BME280;14965;50.660;13.226;2022-11-15T03:16:51;94743.56;;;4.90;97.16
30110;BME280;14965;50.660;13.226;2022-11-15T03:19:33;94747.84;;;4.91;97.36
30110;BME280;14965;50.660;13.226;2022-11-15T03:22:04;94752.91;;;4.93;97.48
30110;BME280;14965;50.660;13.226;2022-11-15T03:24:36;94747.41;;;4.93;97.34
30110;BME280;14965;50.660;13.226;2022-11-15T03:27:06;94752.13;;;4.92;97.62
30110;BME280;14965;50.660;13.226;2022-11-15T03:29:42;94740.03;;;4.90;97.47
30110;BME280;14965;50.660;13.226;2022-11-15T03:32:15;94747.47;;;4.89;97.97
30110;BME280;14965;50.660;13.226;2022-11-15T03:34:50;94744.38;;;4.84;97.49
30110;BME280;14965;50.660;13.226;2022-11-15T03:37:20;94740.56;;;4.74;97.16
30110;BME280;14965;50.660;13.226;2022-11-15T03:39:48;94744.16;;;4.64;96.80
30110;BME280;14965;50.660;13.226;2022-11-15T03:42:22;94737.22;;;4.56;96.85
30110;BME280;14965;50.660;13.226;2022-11-15T03:44:59;94745.47;;;4.48;96.51
30110;BME280;14965;50.660;13.226;2022-11-15T03:47:32;94735.34;;;4.42;96.46
30110;BME280;14965;50.660;13.226;2022-11-15T03:50:08;94736.97;;;4.36;96.57
30110;BME280;14965;50.660;13.226;2022-11-15T03:52:35;94737.38;;;4.31;96.73
30110;BME280;14965;50.660;13.226;2022-11-15T03:55:04;94727.63;;;4.30;96.88
30110;BME280;14965;50.660;13.226;2022-11-15T03:57:31;94727.16;;;4.38;97.54
30110;BME280;14965;50.660;13.226;2022-11-15T03:59:57;94722.03;;;4.47;98.19
30110;BME280;14965;50.660;13.226;2022-11-15T04:02:23;94723.91;;;4.54;98.07
30110;BME280;14965;50.660;13.226;2022-11-15T04:04:49;94727.00;;;4.60;98.46
30110;BME280;14965;50.660;13.226;2022-11-15T04:07:16;94721.88;;;4.65;98.93
30110;BME280;14965;50.660;13.226;2022-11-15T04:09:42;94722.25;;;4.67;98.93
30110;BME280;14965;50.660;13.226;2022-11-15T04:12:08;94723.81;;;4.68;99.35
30110;BME280;14965;50.660;13.226;2022-11-15T04:14:34;94713.25;;;4.67;98.87
30110;BME280;14965;50.660;13.226;2022-11-15T04:17:00;94706.66;;;4.64;99.34
30110;BME280;14965;50.660;13.226;2022-11-15T04:19:26;94705.84;;;4.64;98.81
30110;BME280;14965;50.660;13.226;2022-11-15T04:21:52;94706.28;;;4.62;98.88
30110;BME280;14965;50.660;13.226;2022-11-15T04:24:19;94705.97;;;4.53;98.92
30110;BME280;14965;50.660;13.226;2022-11-15T04:26:45;94709.13;;;4.48;99.38
30110;BME280;14965;50.660;13.226;2022-11-15T04:29:11;94712.69;;;4.41;99.06
30110;BME280;14965;50.660;13.226;2022-11-15T04:31:37;94720.59;;;4.29;98.91
30110;BME280;14965;50.660;13.226;2022-11-15T04:34:03;94714.41;;;4.17;98.77
30110;BME280;14965;50.660;13.226;2022-11-15T04:36:29;94717.63;;;4.05;99.38
30110;BME280;14965;50.660;13.226;2022-11-15T04:38:54;94719.22;;;4.03;99.84
30110;BME280;14965;50.660;13.226;2022-11-15T04:41:22;94713.75;;;3.99;99.85
30110;BME280;14965;50.660;13.226;2022-11-15T04:43:48;94711.09;;;3.88;99.78
30110;BME280;14965;50.660;13.226;2022-11-15T04:46:14;94714.25;;;3.80;100.00
30110;BME280;14965;50.660;13.226;2022-11-15T04:48:40;94719.38;;;3.74;100.00
30110;BME280;14965;50.660;13.226;2022-11-15T04:51:06;94711.59;;;3.72;100.00
30110;BME280;14965;50.660;13.226;2022-11-15T04:53:32;94715.88;;;3.70;100.00
30110;BME280;14965;50.660;13.226;2022-11-15T04:55:59;94704.19;;;3.69;100.00
30110;BME280;14965;50.660;13.226;2022-11-15T04:58:26;94704.19;;;3.69;100.00
30110;BME280;14965;50.660;13.226;2022-11-15T05:00:52;94708.09;;;3.68;100.00
30110;BME280;14965;50.660;13.226;2022-11-15T05:03:18;94713.16;;;3.66;100.00
30110;BME280;14965;50.660;13.226;2022-11-15T05:05:44;94710.44;;;3.59;100.00
30110;BME280;14965;50.660;13.226;2022-11-15T05:08:10;94716.34;;;3.54;100.00
30110;BME280;14965;50.660;13.226;2022-11-15T05:10:35;94717.16;;;3.47;100.00
30110;BME280;14965;50.660;13.226;2022-11-15T05:13:01;94710.94;;;3.40;99.93
30110;BME280;14965;50.660;13.226;2022-11-15T05:15:29;94710.19;;;3.36;100.00
30110;BME280;14965;50.660;13.226;2022-11-15T05:17:58;94716.41;;;3.33;100.00
30110;BME280;14965;50.660;13.226;2022-11-15T05:20:24;94712.16;;;3.28;100.00
30110;BME280;14965;50.660;13.226;2022-11-15T05:22:50;94707.88;;;3.27;100.00
30110;BME280;14965;50.660;13.226;2022-11-15T05:25:16;94702.00;;;3.25;100.00
30110;BME280;14965;50.660;13.226;2022-11-15T05:27:42;94703.97;;;3.24;100.00
30110;BME280;14965;50.660;13.226;2022-11-15T05:30:09;94703.19;;;3.24;100.00
30110;BME280;14965;50.660;13.226;2022-11-15T05:32:36;94697.38;;;3.22;100.00
30110;BME280;14965;50.660;13.226;2022-11-15T05:35:05;94706.72;;;3.21;100.00
30110;BME280;14965;50.660;13.226;2022-11-15T05:37:33;94696.19;;;3.19;100.00
30110;BME280;14965;50.660;13.226;2022-11-15T05:39:59;94704.38;;;3.19;100.00
30110;BME280;14965;50.660;13.226;2022-11-15T05:42:26;94702.44;;;3.20;100.00
30110;BME280;14965;50.660;13.226;2022-11-15T05:44:53;94700.09;;;3.22;100.00
30110;BME280;14965;50.660;13.226;2022-11-15T05:47:23;94705.91;;;3.28;100.00
30110;BME280;14965;50.660;13.226;2022-11-15T05:49:53;94699.69;;;3.27;100.00
30110;BME280;14965;50.660;13.226;2022-11-15T05:52:23;94700.06;;;3.25;100.00
30110;BME280;14965;50.660;13.226;2022-11-15T05:54:51;94699.28;;;3.29;100.00
30110;BME280;14965;50.660;13.226;2022-11-15T05:57:18;94700.03;;;3.40;100.00
30110;BME280;14965;50.660;13.226;2022-11-15T05:59:44;94697.63;;;3.49;100.00
30110;BME280;14965;50.660;13.226;2022-11-15T06:02:11;94705.03;;;3.56;100.00
30110;BME280;14965;50.660;13.226;2022-11-15T06:04:37;94702.25;;;3.59;100.00
30110;BME280;14965;50.660;13.226;2022-11-15T06:07:04;94699.13;;;3.64;100.00
30110;BME280;14965;50.660;13.226;2022-11-15T06:09:30;94700.72;;;3.58;100.00
30110;BME280;14965;50.660;13.226;2022-11-15T06:11:56;94704.66;;;3.46;100.00
30110;BME280;14965;50.660;13.226;2022-11-15T06:14:22;94697.66;;;3.42;100.00
30110;BME280;14965;50.660;13.226;2022-11-15T06:16:48;94699.63;;;3.38;100.00
30110;BME280;14965;50.660;13.226;2022-11-15T06:19:14;94698.09;;;3.33;100.00
30110;BME280;14965;50.660;13.226;2022-11-15T06:21:40;94691.09;;;3.29;100.00
30110;BME280;14965;50.660;13.226;2022-11-15T06:24:07;94697.31;;;3.29;100.00
30110;BME280;14965;50.660;13.226;2022-11-15T06:26:33;94686.81;;;3.31;100.00
30110;BME280;14965;50.660;13.226;2022-11-15T06:28:59;94689.16;;;3.25;100.00
30110;BME280;14965;50.660;13.226;2022-11-15T06:31:25;94684.44;;;3.30;100.00
30110;BME280;14965;50.660;13.226;2022-11-15T06:33:51;94677.03;;;3.34;100.00
30110;BME280;14965;50.660;13.226;2022-11-15T06:36:17;94682.88;;;3.36;100.00
30110;BME280;14965;50.660;13.226;2022-11-15T06:38:44;94685.19;;;3.41;100.00
30110;BME280;14965;50.660;13.226;2022-11-15T06:41:13;94685.59;;;3.43;100.00
30110;BME280;14965;50.660;13.226;2022-11-15T06:43:39;94695.69;;;3.49;100.00
30110;BME280;14965;50.660;13.226;2022-11-15T06:46:06;94696.84;;;3.52;100.00
30110;BME280;14965;50.660;13.226;2022-11-15T06:48:34;94704.22;;;3.59;100.00
30110;BME280;14965;50.660;13.226;2022-11-15T06:51:02;94697.19;;;3.65;100.00
30110;BME280;14965;50.660;13.226;2022-11-15T06:53:29;94702.22;;;3.73;100.00
30110;BME280;14965;50.660;13.226;2022-11-15T06:55:59;94702.94;;;3.81;100.00
30110;BME280;14965;50.660;13.226;2022-11-15T06:58:26;94705.25;;;3.86;100.00
30110;BME280;14965;50.660;13.226;2022-11-15T07:00:52;94711.88;;;3.89;100.00
30110;BME280;14965;50.660;13.226;2022-11-15T07:03:18;94710.31;;;3.88;100.00
30110;BME280;14965;50.660;13.226;2022-11-15T07:05:51;94710.31;;;3.84;100.00
30110;BME280;14965;50.660;13.226;2022-11-15T07:08:18;94710.72;;;3.86;100.00
30110;BME280;14965;50.660;13.226;2022-11-15T07:10:43;94706.00;;;3.90;100.00
30110;BME280;14965;50.660;13.226;2022-11-15T07:13:09;94713.75;;;3.99;100.00
30110;BME280;14965;50.660;13.226;2022-11-15T07:15:37;94710.59;;;4.08;100.00
30110;BME280;14965;50.660;13.226;2022-11-15T07:18:03;94714.44;;;4.14;100.00
30110;BME280;14965;50.660;13.226;2022-11-15T07:20:29;94707.78;;;4.18;100.00
30110;BME280;14965;50.660;13.226;2022-11-15T07:23:00;94711.28;;;4.22;99.95
30110;BME280;14965;50.660;13.226;2022-11-15T07:25:26;94715.13;;;4.29;99.58
30110;BME280;14965;50.660;13.226;2022-11-15T07:27:54;94714.69;;;4.37;99.50
30110;BME280;14965;50.660;13.226;2022-11-15T07:30:24;94709.16;;;4.44;98.98
30110;BME280;14965;50.660;13.226;2022-11-15T07:32:54;94700.94;;;4.48;98.60
30110;BME280;14965;50.660;13.226;2022-11-15T07:35:20;94702.09;;;4.47;98.13
30110;BME280;14965;50.660;13.226;2022-11-15T07:37:55;94697.38;;;4.51;97.79
30110;BME280;14965;50.660;13.226;2022-11-15T07:40:21;94702.44;;;4.56;97.55
30110;BME280;14965;50.660;13.226;2022-11-15T07:42:47;94709.78;;;4.63;97.20
30110;BME280;14965;50.660;13.226;2022-11-15T07:45:13;94715.63;;;4.68;97.23
30110;BME280;14965;50.660;13.226;2022-11-15T07:47:39;94713.97;;;4.74;96.99
30110;BME280;14965;50.660;13.226;2022-11-15T07:50:07;94709.22;;;4.82;97.01
30110;BME280;14965;50.660;13.226;2022-11-15T07:52:33;94700.16;;;4.89;96.56
30110;BME280;14965;50.660;13.226;2022-11-15T07:54:59;94700.47;;;4.98;96.62
30110;BME280;14965;50.660;13.226;2022-11-15T07:57:24;94701.97;;;5.06;95.95
30110;BME280;14965;50.660;13.226;2022-11-15T07:59:50;94694.81;;;5.16;95.72
30110;BME280;14965;50.660;13.226;2022-11-15T08:02:16;94702.97;;;5.23;95.40
30110;BME280;14965;50.660;13.226;2022-11-15T08:04:42;94700.91;;;5.31;95.23
30110;BME280;14965;50.660;13.226;2022-11-15T08:07:10;94699.28;;;5.37;95.12
30110;BME280;14965;50.660;13.226;2022-11-15T08:09:36;94705.03;;;5.46;94.67
30110;BME280;14965;50.660;13.226;2022-11-15T08:12:01;94709.19;;;5.58;94.36
30110;BME280;14965;50.660;13.226;2022-11-15T08:14:28;94704.75;;;5.67;93.25
30110;BME280;14965;50.660;13.226;2022-11-15T08:16:54;94704.66;;;5.78;93.29
30110;BME280;14965;50.660;13.226;2022-11-15T08:19:20;94700.25;;;5.84;92.36
30110;BME280;14965;50.660;13.226;2022-11-15T08:21:47;94700.53;;;5.93;91.60
30110;BME280;14965;50.660;13.226;2022-11-15T08:24:14;94692.13;;;6.08;92.20
30110;BME280;14965;50.660;13.226;2022-11-15T08:26:42;94689.22;;;6.18;90.96
30110;BME280;14965;50.660;13.226;2022-11-15T08:29:08;94683.16;;;6.31;90.70
30110;BME280;14965;50.660;13.226;2022-11-15T08:31:35;94685.38;;;6.39;90.54
30110;BME280;14965;50.660;13.226;2022-11-15T08:34:01;94675.78;;;6.51;90.29
30110;BME280;14965;50.660;13.226;2022-11-15T08:36:27;94679.91;;;6.63;89.61
30110;BME280;14965;50.660;13.226;2022-11-15T08:38:53;94671.50;;;6.73;89.22
30110;BME280;14965;50.660;13.226;2022-11-15T08:41:26;94682.28;;;6.84;89.36
30110;BME280;14965;50.660;13.226;2022-11-15T08:43:53;94678.59;;;6.94;88.27
30110;BME280;14965;50.660;13.226;2022-11-15T08:46:19;94677.19;;;7.06;88.93
30110;BME280;14965;50.660;13.226;2022-11-15T08:48:45;94672.72;;;7.16;87.84
30110;BME280;14965;50.660;13.226;2022-11-15T08:51:11;94672.50;;;7.27;87.21
30110;BME280;14965;50.660;13.226;2022-11-15T08:53:37;94669.88;;;7.39;86.98
30110;BME280;14965;50.660;13.226;2022-11-15T08:56:08;94669.31;;;7.48;86.73
30110;BME280;14965;50.660;13.226;2022-11-15T08:58:35;94668.78;;;7.57;85.88
30110;BME280;14965;50.660;13.226;2022-11-15T09:01:03;94668.22;;;7.65;85.49
30110;BME280;14965;50.660;13.226;2022-11-15T09:03:29;94652.75;;;7.71;85.20
30110;BME280;14965;50.660;13.226;2022-11-15T09:05:56;94655.69;;;7.81;85.09
30110;BME280;14965;50.660;13.226;2022-11-15T09:08:23;94649.19;;;7.91;85.10
30110;BME280;14965;50.660;13.226;2022-11-15T09:10:49;94647.41;;;8.01;84.70
30110;BME280;14965;50.660;13.226;2022-11-15T09:13:16;94652.31;;;8.09;84.25
30110;BME280;14965;50.660;13.226;2022-11-15T09:15:43;94649.66;;;8.22;84.13
30110;BME280;14965;50.660;13.226;2022-11-15T09:18:09;94652.19;;;8.33;83.61
30110;BME280;14965;50.660;13.226;2022-11-15T09:20:37;94655.47;;;8.44;82.67
30110;BME280;14965;50.660;13.226;2022-11-15T09:23:05;94651.69;;;8.54;82.21
30110;BME280;14965;50.660;13.226;2022-11-15T09:25:32;94656.69;;;8.59;81.50
30110;BME280;14965;50.660;13.226;2022-11-15T09:28:06;94651.34;;;8.68;81.10
30110;BME280;14965;50.660;13.226;2022-11-15T09:30:32;94655.47;;;8.77;80.80
30110;BME280;14965;50.660;13.226;2022-11-15T09:33:06;94649.00;;;8.83;80.72
30110;BME280;14965;50.660;13.226;2022-11-15T09:35:32;94632.63;;;8.92;80.40
30110;BME280;14965;50.660;13.226;2022-11-15T09:37:58;94638.28;;;9.02;79.88
30110;BME280;14965;50.660;13.226;2022-11-15T09:40:27;94639.22;;;9.11;79.61
30110;BME280;14965;50.660;13.226;2022-11-15T09:43:19;94634.97;;;9.23;78.43
30110;BME280;14965;50.660;13.226;2022-11-15T09:46:05;94626.50;;;9.30;78.09
30110;BME280;14965;50.660;13.226;2022-11-15T09:48:49;94632.16;;;9.39;78.37
30110;BME280;14965;50.660;13.226;2022-11-15T09:51:26;94627.56;;;9.49;78.29
30110;BME280;14965;50.660;13.226;2022-11-15T09:54:03;94627.25;;;9.60;77.58
30110;BME280;14965;50.660;13.226;2022-11-15T09:56:33;94616.34;;;9.69;77.65
30110;BME280;14965;50.660;13.226;2022-11-15T09:59:22;94624.31;;;9.80;77.28
30110;BME280;14965;50.660;13.226;2022-11-15T10:02:04;94627.06;;;9.80;76.13
30110;BME280;14965;50.660;13.226;2022-11-15T10:04:38;94623.44;;;9.83;75.73
30110;BME280;14965;50.660;13.226;2022-11-15T10:07:14;94618.13;;;9.88;75.96
30110;BME280;14965;50.660;13.226;2022-11-15T10:09:47;94617.47;;;9.97;75.40
30110;BME280;14965;50.660;13.226;2022-11-15T10:12:15;94610.19;;;10.03;75.18
30110;BME280;14965;50.660;13.226;2022-11-15T10:14:42;94612.72;;;10.10;74.96
30110;BME280;14965;50.660;13.226;2022-11-15T10:17:49;94603.47;;;10.17;74.47
30110;BME280;14965;50.660;13.226;2022-11-15T10:20:25;94599.69;;;10.23;73.95
30110;BME280;14965;50.660;13.226;2022-11-15T10:22:55;94601.59;;;10.27;73.66
30110;BME280;14965;50.660;13.226;2022-11-15T10:25:25;94599.97;;;10.29;73.78
30110;BME280;14965;50.660;13.226;2022-11-15T10:27:58;94588.91;;;10.29;73.15
30110;BME280;14965;50.660;13.226;2022-11-15T10:30:33;94588.81;;;10.33;73.38
30110;BME280;14965;50.660;13.226;2022-11-15T10:33:19;94584.38;;;10.35;72.66
30110;BME280;14965;50.660;13.226;2022-11-15T10:35:47;94586.38;;;10.35;71.80
30110;BME280;14965;50.660;13.226;2022-11-15T10:38:14;94582.38;;;10.36;71.72
30110;BME280;14965;50.660;13.226;2022-11-15T10:40:41;94577.97;;;10.38;71.83
30110;BME280;14965;50.660;13.226;2022-11-15T10:43:16;94565.28;;;10.41;71.37
30110;BME280;14965;50.660;13.226;2022-11-15T10:45:43;94577.75;;;10.45;71.53
30110;BME280;14965;50.660;13.226;2022-11-15T10:48:23;94565.38;;;10.50;71.69
30110;BME280;14965;50.660;13.226;2022-11-15T10:50:52;94551.00;;;10.55;71.22
30110;BME280;14965;50.660;13.226;2022-11-15T10:53:28;94552.41;;;10.60;71.24
30110;BME280;14965;50.660;13.226;2022-11-15T10:55:59;94549.06;;;10.65;70.83
30110;BME280;14965;50.660;13.226;2022-11-15T10:58:37;94545.31;;;10.71;70.97
30110;BME280;14965;50.660;13.226;2022-11-15T11:01:17;94538.63;;;10.82;71.00
30110;BME280;14965;50.660;13.226;2022-11-15T11:03:45;94541.47;;;10.91;70.52
30110;BME280;14965;50.660;13.226;2022-11-15T11:06:24;94531.38;;;10.97;70.22
30110;BME280;14965;50.660;13.226;2022-11-15T11:08:58;94536.78;;;11.01;70.09
30110;BME280;14965;50.660;13.226;2022-11-15T11:11:24;94530.22;;;11.07;70.47
30110;BME280;14965;50.660;13.226;2022-11-15T11:13:50;94535.19;;;11.12;70.09
30110;BME280;14965;50.660;13.226;2022-11-15T11:16:44;94536.03;;;11.22;70.04
30110;BME280;14965;50.660;13.226;2022-11-15T11:19:48;94531.78;;;11.30;69.89
30110;BME280;14965;50.660;13.226;2022-11-15T11:22:26;94530.72;;;11.37;69.97
30110;BME280;14965;50.660;13.226;2022-11-15T11:25:07;94524.28;;;11.40;69.49
30110;BME280;14965;50.660;13.226;2022-11-15T11:27:51;94521.41;;;11.43;69.14
30110;BME280;14965;50.660;13.226;2022-11-15T11:30:40;94514.97;;;11.46;69.06
30110;BME280;14965;50.660;13.226;2022-11-15T11:33:16;94512.50;;;11.48;69.00
30110;BME280;14965;50.660;13.226;2022-11-15T11:35:59;94513.28;;;11.49;69.08
30110;BME280;14965;50.660;13.226;2022-11-15T11:38:57;94499.78;;;11.51;68.95
30110;BME280;14965;50.660;13.226;2022-11-15T11:41:52;94495.19;;;11.57;69.56
30110;BME280;14965;50.660;13.226;2022-11-15T11:44:32;94498.59;;;11.61;69.56
30110;BME280;14965;50.660;13.226;2022-11-15T11:47:01;94485.84;;;11.64;69.74
30110;BME280;14965;50.660;13.226;2022-11-15T11:49:39;94488.03;;;11.69;69.16
30110;BME280;14965;50.660;13.226;2022-11-15T11:52:14;94474.53;;;11.71;69.24
30110;BME280;14965;50.660;13.226;2022-11-15T11:54:57;94473.28;;;11.72;69.02
30110;BME280;14965;50.660;13.226;2022-11-15T11:57:34;94472.06;;;11.73;68.85
30110;BME280;14965;50.660;13.226;2022-11-15T12:00:15;94472.53;;;11.71;68.57
30110;BME280;14965;50.660;13.226;2022-11-15T12:02:49;94470.53;;;11.72;68.37
30110;BME280;14965;50.660;13.226;2022-11-15T12:05:25;94459.75;;;11.74;68.55
30110;BME280;14965;50.660;13.226;2022-11-15T12:10:41;94455.19;;;11.80;67.25
30110;BME280;14965;50.660;13.226;2022-11-15T12:13:16;94445.66;;;11.81;66.84
30110;BME280;14965;50.660;13.226;2022-11-15T12:15:52;94448.41;;;11.81;66.78
30110;BME280;14965;50.660;13.226;2022-11-15T12:18:21;94446.88;;;11.80;65.38
30110;BME280;14965;50.660;13.226;2022-11-15T12:20:56;94443.78;;;11.78;65.45
30110;BME280;14965;50.660;13.226;2022-11-15T12:23:29;94440.56;;;11.80;66.13
30110;BME280;14965;50.660;13.226;2022-11-15T12:26:04;94437.03;;;11.79;65.83
30110;BME280;14965;50.660;13.226;2022-11-15T12:28:37;94441.78;;;11.79;65.60
30110;BME280;14965;50.660;13.226;2022-11-15T12:31:15;94434.41;;;11.76;64.73
30110;BME280;14965;50.660;13.226;2022-11-15T12:33:46;94439.31;;;11.71;64.70
30110;BME280;14965;50.660;13.226;2022-11-15T12:36:34;94436.38;;;11.66;63.71
30110;BME280;14965;50.660;13.226;2022-11-15T12:39:03;94436.97;;;11.61;64.30
30110;BME280;14965;50.660;13.226;2022-11-15T12:41:34;94428.50;;;11.55;64.55
30110;BME280;14965;50.660;13.226;2022-11-15T12:44:01;94429.56;;;11.48;64.17
30110;BME280;14965;50.660;13.226;2022-11-15T12:47:02;94423.72;;;11.46;64.56
30110;BME280;14965;50.660;13.226;2022-11-15T12:49:46;94421.22;;;11.39;64.77
30110;BME280;14965;50.660;13.226;2022-11-15T12:52:12;94423.34;;;11.35;64.83
30110;BME280;14965;50.660;13.226;2022-11-15T12:54:58;94424.41;;;11.29;64.21
30110;BME280;14965;50.660;13.226;2022-11-15T12:57:40;94419.03;;;11.25;64.37
30110;BME280;14965;50.660;13.226;2022-11-15T13:00:44;94412.88;;;11.21;64.97
30110;BME280;14965;50.660;13.226;2022-11-15T13:03:26;94413.00;;;11.17;64.79
30110;BME280;14965;50.660;13.226;2022-11-15T13:06:04;94404.06;;;11.13;65.16
30110;BME280;14965;50.660;13.226;2022-11-15T13:08:47;94400.66;;;11.09;65.19
30110;BME280;14965;50.660;13.226;2022-11-15T13:11:52;94404.03;;;11.04;65.73
30110;BME280;14965;50.660;13.226;2022-11-15T13:14:47;94398.16;;;11.02;65.71
30110;BME280;14965;50.660;13.226;2022-11-15T13:17:34;94397.53;;;10.98;65.63